Sergeantsville, NJ (08557)

10:15 PM EST on December 08, 2016 (GMT -0500)
Sergeantsville | | Change Station

Elev 371 ft 40.45 °N, 74.94 °W | Updated 26 seconds ago

Partly Cloudy
Partly Cloudy
32.0 °F
Feels Like 32 °F
N
2.7
Wind Variable Wind from WNW
Gusts 4.9 mph

Today
High -- | Low -- °F
--% Chance of Precip.
Yesterday
High -- | Low -- °F
Precip. -- in
Pressure 30.06 in
Visibility 10.0 miles
Clouds Scattered Clouds 6000 ft
Windchill 32 °F
Dew Point 13 °F
Humidity 45%
Rainfall 0.00 in
Snow Depth Not available.
7:10 AM 4:33 PM
Waxing Gibbous, 69% visible
METAR KDYL 090254Z AUTO 27012G21KT 10SM SCT060 00/M09 A3004 RMK AO2 SLP179 T00001089 51010
Pressure 30.06 in
Visibility 10.0 miles
Clouds Scattered Clouds 6000 ft
Windchill 32 °F
Dew Point 13 °F
Humidity 45%
Rainfall 0.00 in
Snow Depth Not available.
7:10 AM 4:33 PM
Waxing Gibbous, 69% visible
METAR KDYL 090254Z AUTO 27012G21KT 10SM SCT060 00/M09 A3004 RMK AO2 SLP179 T00001089 51010

10-Day Weather Forecast

Almanac

Astronomy

Dec. 08, 2016 Rise Set
Actual Time
Civil Twilight
Nautical Twilight
Astronomical Twilight
Moon
Length of Visible Light
Length of Day
Tomorrow will be .
, % of the Moon is Illuminated

Today's Extremes

State Highs State Lows

Community

WunderPhotos

Upload Photos

1,956,351 photos uploaded!

WunderBlog® & News

Nearby

Air Quality

  Air Quality AQ Index Pollutant
Not available.

Snow Depth

Station Depth Elevation

Earthquake Activity

City Distance Mag. Time & Date
Minimum magnitude displayed is 2.5.

Coastal Water Temperatures

Place Temperature

Stations

Nearby Weather Stations

Station Location Temp. Windchill Dew Point Humidity Wind Precip. Elev Updated Type
                   

Watches & Warnings

There are currently no watches in effect.